Time;durP1;ratioP1;P1;durP2;ratioP2;P2;SDS_P1;SDS_P2;PMS_P1;PMS_P2;Temp;Humidity;BMP_temperature;BMP_pressure;BME280_temperature;BME280_humidity;BME280_pressure;Samples;Min_cycle;Max_cycle;Signal;HPM_P1;HPM_P2
2021/12/26 00:00:35;;;;;;;21.50;16.00;;;6.20;99.90;;;;;;5036162;28;21175;-89
2021/12/26 00:03:02;;;;;;;18.40;16.40;;;6.20;99.90;;;;;;5035574;28;20500;-88
2021/12/26 00:05:32;;;;;;;18.90;15.87;;;6.10;99.90;;;;;;5035015;28;20484;-90
2021/12/26 00:07:59;;;;;;;21.90;17.57;;;6.20;99.90;;;;;;5038261;28;20448;-90
2021/12/26 00:10:27;;;;;;;19.40;15.63;;;6.20;99.90;;;;;;5035317;28;20453;-90
2021/12/26 00:12:54;;;;;;;20.23;17.00;;;6.20;99.90;;;;;;5033948;28;20926;-90
2021/12/26 00:15:21;;;;;;;20.83;15.93;;;6.20;99.90;;;;;;5033477;28;20473;-90
2021/12/26 00:17:48;;;;;;;17.90;15.70;;;6.20;99.90;;;;;;5037439;28;20456;-88
2021/12/26 00:20:15;;;;;;;18.77;15.83;;;6.10;99.90;;;;;;5044708;28;20819;-89
2021/12/26 00:22:44;;;;;;;19.00;16.63;;;6.20;99.90;;;;;;5052131;28;20485;-90
2021/12/26 00:25:12;;;;;;;21.00;17.97;;;6.20;99.90;;;;;;5052242;28;20519;-90
2021/12/26 00:27:39;;;;;;;18.10;15.00;;;6.20;99.90;;;;;;5041908;28;20460;-90
2021/12/26 00:30:10;;;;;;;17.43;14.90;;;6.20;99.90;;;;;;5036776;28;20445;-90
2021/12/26 00:32:37;;;;;;;20.57;15.00;;;6.20;99.90;;;;;;5034058;28;20442;-90
2021/12/26 00:35:04;;;;;;;13.23;11.37;;;6.20;99.90;;;;;;5034408;28;20469;-91
2021/12/26 00:37:31;;;;;;;15.23;13.60;;;6.20;99.90;;;;;;5034515;28;20444;-90
2021/12/26 00:39:59;;;;;;;14.27;12.27;;;6.20;99.90;;;;;;5034977;28;20938;-90
2021/12/26 00:42:26;;;;;;;17.07;13.67;;;6.20;99.90;;;;;;5032424;28;20484;-90
2021/12/26 00:44:53;;;;;;;17.73;12.80;;;6.20;99.90;;;;;;5038104;28;20472;-90
2021/12/26 00:47:20;;;;;;;15.53;12.60;;;6.20;99.90;;;;;;5036055;28;20445;-91
2021/12/26 00:49:46;;;;;;;14.10;12.80;;;6.20;99.90;;;;;;5035699;28;20949;-89
2021/12/26 00:52:13;;;;;;;14.07;10.87;;;6.20;99.90;;;;;;5034384;28;20449;-90
2021/12/26 00:54:40;;;;;;;14.83;12.90;;;6.20;99.90;;;;;;5034900;28;20476;-91
2021/12/26 00:57:08;;;;;;;13.50;12.20;;;6.20;99.90;;;;;;5043168;28;20453;-91
2021/12/26 00:59:35;;;;;;;13.07;11.77;;;6.20;99.90;;;;;;5053962;28;20517;-89
2021/12/26 01:02:02;;;;;;;13.37;11.90;;;6.20;99.90;;;;;;5040995;28;20523;-89
2021/12/26 01:04:29;;;;;;;14.40;12.90;;;6.20;99.90;;;;;;5038259;28;20476;-90
2021/12/26 01:06:55;;;;;;;15.73;14.00;;;6.20;99.90;;;;;;5039825;28;20429;-90
2021/12/26 01:09:27;;;;;;;15.00;12.60;;;6.20;99.90;;;;;;5038874;28;20449;-90
2021/12/26 01:11:58;;;;;;;14.87;13.07;;;6.10;99.90;;;;;;5039308;28;20450;-89
2021/12/26 01:14:30;;;;;;;15.43;12.70;;;6.10;99.90;;;;;;5041667;28;20466;-91
2021/12/26 01:17:05;;;;;;;16.33;12.73;;;6.10;99.90;;;;;;5042947;28;20681;-89
2021/12/26 01:19:41;;;;;;;16.60;13.33;;;6.10;99.90;;;;;;5039522;28;20999;-89
2021/12/26 01:22:08;;;;;;;18.60;14.67;;;6.10;99.90;;;;;;5041585;28;20468;-87
2021/12/26 01:24:35;;;;;;;18.50;14.57;;;6.10;99.90;;;;;;5038162;28;20457;-90
2021/12/26 01:27:04;;;;;;;19.90;15.57;;;6.10;99.90;;;;;;5036038;28;20993;-89
2021/12/26 01:29:34;;;;;;;17.40;15.37;;;6.00;99.90;;;;;;5035077;28;20880;-89
2021/12/26 01:32:00;;;;;;;19.43;16.03;;;6.00;99.90;;;;;;5035049;28;20968;-89
2021/12/26 01:34:28;;;;;;;17.77;15.13;;;6.00;99.90;;;;;;5034269;28;20469;-89
2021/12/26 01:36:55;;;;;;;18.70;15.00;;;6.00;99.90;;;;;;5033899;28;20456;-89
2021/12/26 01:39:22;;;;;;;19.87;15.70;;;5.90;99.90;;;;;;5037976;28;20510;-88
2021/12/26 01:41:49;;;;;;;15.70;13.90;;;5.90;99.90;;;;;;5056568;28;20453;-89
2021/12/26 01:44:17;;;;;;;19.80;15.40;;;5.90;99.90;;;;;;5045757;28;20464;-89
2021/12/26 01:46:47;;;;;;;20.23;15.40;;;5.90;99.90;;;;;;5039987;28;20441;-90
2021/12/26 01:49:17;;;;;;;20.13;16.10;;;5.90;99.90;;;;;;5033953;28;22188;-88
2021/12/26 01:51:45;;;;;;;21.10;16.50;;;5.90;99.90;;;;;;5041798;28;20448;-88
2021/12/26 01:54:15;;;;;;;19.87;15.87;;;5.90;99.90;;;;;;5038866;28;20483;-89
2021/12/26 01:56:43;;;;;;;19.80;16.27;;;5.90;99.90;;;;;;5031221;28;20636;-90
2021/12/26 01:59:13;;;;;;;17.53;14.30;;;5.90;99.90;;;;;;5036124;28;20445;-89
2021/12/26 02:01:39;;;;;;;17.83;14.40;;;5.90;99.90;;;;;;5034805;28;20449;-90
2021/12/26 02:04:09;;;;;;;20.23;17.03;;;5.90;99.90;;;;;;5034940;28;20481;-90
2021/12/26 02:06:36;;;;;;;23.60;18.10;;;5.80;99.90;;;;;;5034761;28;20446;-91
2021/12/26 02:09:03;;;;;;;20.43;16.60;;;5.80;99.90;;;;;;5034623;28;20974;-90
2021/12/26 02:11:30;;;;;;;19.60;14.80;;;5.80;99.90;;;;;;5032231;28;20449;-90
2021/12/26 02:13:57;;;;;;;20.83;17.47;;;5.80;99.90;;;;;;5031997;28;20527;-90
2021/12/26 02:16:24;;;;;;;18.17;14.50;;;5.80;99.90;;;;;;5047400;28;20464;-90
2021/12/26 02:18:51;;;;;;;18.40;14.40;;;5.80;99.90;;;;;;5055930;28;20434;-89
2021/12/26 02:21:31;;;;;;;20.40;15.77;;;5.80;99.90;;;;;;5038449;28;20438;-90
2021/12/26 02:24:08;;;;;;;20.10;17.10;;;5.80;99.90;;;;;;5031245;28;20481;-89
2021/12/26 02:29:20;;;;;;;21.77;16.73;;;5.70;99.90;;;;;;5032252;28;20420;-90
2021/12/26 02:31:46;;;;;;;21.27;17.27;;;5.70;99.90;;;;;;5033711;28;20458;-90
2021/12/26 02:34:13;;;;;;;19.67;16.20;;;5.70;99.90;;;;;;5033633;28;21031;-89
2021/12/26 02:36:41;;;;;;;20.83;16.50;;;5.70;99.90;;;;;;5034034;28;20444;-89
2021/12/26 02:39:08;;;;;;;21.40;16.63;;;5.70;99.90;;;;;;5035866;28;20888;-89
2021/12/26 02:41:35;;;;;;;21.70;16.80;;;5.70;99.90;;;;;;5050799;28;21335;-89
2021/12/26 02:44:02;;;;;;;18.50;15.50;;;5.70;99.90;;;;;;5057482;28;20469;-88
2021/12/26 02:46:29;;;;;;;21.07;17.13;;;5.70;99.90;;;;;;5057578;28;20409;-89
2021/12/26 02:48:55;;;;;;;20.37;15.93;;;5.70;99.90;;;;;;5054993;28;20437;-86
2021/12/26 02:51:22;;;;;;;21.17;17.30;;;5.70;99.90;;;;;;5058265;28;20437;-89
2021/12/26 02:53:51;;;;;;;21.07;17.27;;;5.70;99.90;;;;;;5056599;28;20449;-89
2021/12/26 02:56:18;;;;;;;20.57;16.43;;;5.70;99.90;;;;;;5035303;28;20457;-89
2021/12/26 02:58:45;;;;;;;19.43;15.60;;;5.80;99.90;;;;;;5042567;28;20487;-89
2021/12/26 03:01:16;;;;;;;20.70;15.40;;;5.70;99.90;;;;;;5037962;28;20491;-89
2021/12/26 03:03:42;;;;;;;21.57;15.87;;;5.70;99.90;;;;;;5040290;28;20558;-89
2021/12/26 03:06:17;;;;;;;24.33;18.13;;;5.70;99.90;;;;;;5039966;28;20453;-90
2021/12/26 03:08:44;;;;;;;21.30;15.63;;;5.70;99.90;;;;;;5042194;28;20452;-88
2021/12/26 03:11:12;;;;;;;21.03;15.93;;;5.70;99.90;;;;;;5045627;28;20438;-89
2021/12/26 03:13:39;;;;;;;20.63;17.40;;;5.70;99.90;;;;;;5036960;28;20457;-89
2021/12/26 03:16:06;;;;;;;22.80;17.30;;;5.70;99.90;;;;;;5039194;28;20449;-89
2021/12/26 03:18:32;;;;;;;20.50;16.40;;;5.70;99.90;;;;;;5035907;28;20441;-88
2021/12/26 03:20:59;;;;;;;21.43;17.80;;;5.80;99.90;;;;;;5036844;28;20471;-89
2021/12/26 03:23:28;;;;;;;23.50;16.30;;;5.80;99.90;;;;;;5035683;28;20473;-89
2021/12/26 03:25:56;;;;;;;21.30;16.90;;;5.80;99.90;;;;;;5035361;28;20445;-89
2021/12/26 03:28:25;;;;;;;21.70;16.50;;;5.70;99.90;;;;;;5035634;28;20865;-88
2021/12/26 03:30:52;;;;;;;22.60;18.00;;;5.70;99.90;;;;;;5035393;28;21020;-88
2021/12/26 03:33:21;;;;;;;21.63;17.40;;;5.70;99.90;;;;;;5034687;28;20543;-91
2021/12/26 03:35:48;;;;;;;21.90;17.40;;;5.70;99.90;;;;;;5036245;28;20445;-90
2021/12/26 03:38:16;;;;;;;19.50;16.40;;;5.70;99.90;;;;;;5036069;28;20999;-89
2021/12/26 03:40:44;;;;;;;19.40;15.23;;;5.70;99.90;;;;;;5035071;28;20452;-87
2021/12/26 03:43:11;;;;;;;21.40;18.43;;;5.70;99.90;;;;;;5045508;28;20886;-87
2021/12/26 03:45:40;;;;;;;21.60;17.30;;;5.70;99.90;;;;;;5040559;28;20449;-89
2021/12/26 03:48:07;;;;;;;22.73;16.97;;;5.70;99.90;;;;;;5035599;28;20449;-89
2021/12/26 03:50:34;;;;;;;24.40;17.73;;;5.70;99.90;;;;;;5038050;28;20445;-90
2021/12/26 03:53:02;;;;;;;25.50;18.27;;;5.70;99.90;;;;;;5041173;28;20513;-89
2021/12/26 03:55:30;;;;;;;25.43;18.70;;;5.70;99.90;;;;;;5038127;28;20508;-89
2021/12/26 03:57:56;;;;;;;23.73;18.43;;;5.60;99.90;;;;;;5033675;28;20453;-89
2021/12/26 04:00:26;;;;;;;22.60;18.27;;;5.60;99.90;;;;;;5039826;28;20445;-89
2021/12/26 04:02:54;;;;;;;23.17;19.70;;;5.70;99.90;;;;;;5049096;28;20480;-88
2021/12/26 04:05:22;;;;;;;24.63;19.67;;;5.70;99.90;;;;;;5052517;28;20468;-89
2021/12/26 04:07:49;;;;;;;21.50;17.63;;;5.70;99.90;;;;;;5035722;28;20499;-90
2021/12/26 04:10:18;;;;;;;22.60;17.60;;;5.70;99.90;;;;;;5044879;28;20444;-87
2021/12/26 04:12:47;;;;;;;25.70;18.40;;;5.70;99.90;;;;;;5053911;28;20437;-88
2021/12/26 04:15:18;;;;;;;23.20;17.17;;;5.60;99.90;;;;;;5060866;28;20481;-87
2021/12/26 04:17:44;;;;;;;21.73;18.17;;;5.70;99.90;;;;;;5051223;28;20445;-89
2021/12/26 04:20:13;;;;;;;22.53;17.10;;;5.70;99.90;;;;;;5036873;28;20453;-89
2021/12/26 04:22:40;;;;;;;23.20;17.20;;;5.70;99.90;;;;;;5036301;28;20488;-89
2021/12/26 04:25:08;;;;;;;22.23;16.60;;;5.70;99.90;;;;;;5036416;28;20477;-89
2021/12/26 04:27:35;;;;;;;20.97;16.33;;;5.70;99.90;;;;;;5033979;28;20450;-89
2021/12/26 04:30:01;;;;;;;24.40;18.40;;;5.70;99.90;;;;;;5034993;28;20449;-89
2021/12/26 04:32:28;;;;;;;22.97;18.70;;;5.70;99.90;;;;;;5035377;28;20843;-89
2021/12/26 04:34:55;;;;;;;23.43;18.43;;;5.80;99.90;;;;;;5034670;28;20469;-90
2021/12/26 04:37:24;;;;;;;23.67;19.00;;;5.80;99.90;;;;;;5035004;28;20445;-90
2021/12/26 04:39:51;;;;;;;25.47;18.37;;;5.80;99.90;;;;;;5034467;28;20445;-90
2021/12/26 04:42:17;;;;;;;24.63;18.57;;;5.80;99.90;;;;;;5065109;28;20452;-88
2021/12/26 04:44:44;;;;;;;23.57;16.87;;;5.80;99.90;;;;;;5057275;28;20999;-89
2021/12/26 04:47:11;;;;;;;23.30;17.63;;;5.80;99.90;;;;;;5035109;28;20445;-90
2021/12/26 04:49:38;;;;;;;24.30;16.63;;;5.80;99.90;;;;;;5037017;28;20461;-89
2021/12/26 04:52:05;;;;;;;25.10;18.27;;;5.70;99.90;;;;;;5038034;28;20432;-89
2021/12/26 04:54:33;;;;;;;23.70;17.80;;;5.70;99.90;;;;;;5038512;28;20457;-89
2021/12/26 04:57:00;;;;;;;27.37;18.17;;;5.70;99.90;;;;;;5036677;28;20946;-90
2021/12/26 04:59:27;;;;;;;25.83;19.00;;;5.70;99.90;;;;;;5034873;28;20441;-91
2021/12/26 05:01:54;;;;;;;24.23;17.97;;;5.80;99.90;;;;;;5035067;28;21073;-90
2021/12/26 05:04:21;;;;;;;24.33;18.23;;;5.70;99.90;;;;;;5036902;28;20512;-90
2021/12/26 05:06:48;;;;;;;24.60;18.37;;;5.70;99.90;;;;;;5034835;28;20444;-91
2021/12/26 05:09:15;;;;;;;25.03;18.90;;;5.70;99.90;;;;;;5036292;28;20453;-90
2021/12/26 05:11:43;;;;;;;25.23;19.50;;;5.70;99.90;;;;;;5034532;28;20535;-87
2021/12/26 05:14:10;;;;;;;24.23;18.90;;;5.70;99.90;;;;;;5031573;28;20477;-87
2021/12/26 05:16:37;;;;;;;27.73;20.67;;;5.70;99.90;;;;;;5033379;28;20470;-90
2021/12/26 05:19:04;;;;;;;26.43;19.63;;;5.70;99.90;;;;;;5032425;28;20453;-90
2021/12/26 05:21:30;;;;;;;25.90;19.40;;;5.70;99.90;;;;;;5044649;28;20445;-90
2021/12/26 05:23:57;;;;;;;26.60;19.77;;;5.70;99.90;;;;;;5033284;28;20481;-89
2021/12/26 05:26:24;;;;;;;23.40;17.77;;;5.70;99.90;;;;;;5035057;28;20488;-90
2021/12/26 05:28:52;;;;;;;26.13;18.10;;;5.70;99.90;;;;;;5034123;28;20460;-90
2021/12/26 05:31:19;;;;;;;26.67;19.60;;;5.60;99.90;;;;;;5036149;28;20904;-89
2021/12/26 05:33:46;;;;;;;27.23;19.80;;;5.70;99.90;;;;;;5033955;28;20465;-90
2021/12/26 05:36:12;;;;;;;27.37;18.80;;;5.60;99.90;;;;;;5033575;28;20449;-91
2021/12/26 05:38:40;;;;;;;24.40;18.40;;;5.70;99.90;;;;;;5033429;28;20445;-91
2021/12/26 05:41:07;;;;;;;28.53;19.40;;;5.70;99.90;;;;;;5032354;28;20457;-90
2021/12/26 05:43:34;;;;;;;27.87;19.47;;;5.70;99.90;;;;;;5031985;28;20480;-89
2021/12/26 05:46:02;;;;;;;23.53;18.67;;;5.70;99.90;;;;;;5032212;28;20449;-90
2021/12/26 05:48:28;;;;;;;32.17;20.57;;;5.70;99.90;;;;;;5032467;28;20453;-90
2021/12/26 05:50:55;;;;;;;26.27;19.10;;;5.70;99.90;;;;;;5032561;28;20449;-90
2021/12/26 05:53:22;;;;;;;25.57;18.13;;;5.70;99.90;;;;;;5031645;28;20450;-89
2021/12/26 05:55:48;;;;;;;24.33;18.00;;;5.70;99.90;;;;;;5031780;28;20548;-90
2021/12/26 05:58:15;;;;;;;22.80;17.37;;;5.80;99.90;;;;;;5032373;28;20446;-90
2021/12/26 06:00:42;;;;;;;23.57;17.23;;;5.70;99.90;;;;;;5045887;28;20451;-88
2021/12/26 06:03:10;;;;;;;26.23;19.30;;;5.70;99.90;;;;;;5060795;28;20427;-90
2021/12/26 06:05:37;;;;;;;25.67;18.73;;;5.70;99.90;;;;;;5058848;28;20519;-89
2021/12/26 06:08:04;;;;;;;26.33;18.37;;;5.60;99.90;;;;;;5037965;28;20437;-90
2021/12/26 06:10:31;;;;;;;24.73;19.40;;;5.60;99.90;;;;;;5033201;28;20801;-90
2021/12/26 06:12:57;;;;;;;31.63;18.93;;;5.60;99.90;;;;;;5033826;28;20449;-90
2021/12/26 06:15:24;;;;;;;24.00;18.67;;;5.60;99.90;;;;;;5031667;28;20472;-90
2021/12/26 06:17:54;;;;;;;24.77;18.50;;;5.60;99.90;;;;;;5036353;28;20460;-89
2021/12/26 06:20:24;;;;;;;25.30;18.20;;;5.60;99.90;;;;;;5037201;28;20980;-87
2021/12/26 06:22:53;;;;;;;25.23;18.70;;;5.60;99.90;;;;;;5034589;28;20441;-86
2021/12/26 06:25:23;;;;;;;31.13;20.33;;;5.60;99.90;;;;;;5040479;28;20502;-87
2021/12/26 06:27:52;;;;;;;27.00;18.93;;;5.70;99.90;;;;;;5049621;28;20441;-86
2021/12/26 06:30:20;;;;;;;25.70;19.93;;;5.60;99.90;;;;;;5041871;28;20460;-86
2021/12/26 06:32:49;;;;;;;28.50;19.30;;;5.60;99.90;;;;;;5051514;28;20484;-86
2021/12/26 06:35:17;;;;;;;28.20;18.80;;;5.60;99.90;;;;;;5058623;28;20452;-87
2021/12/26 06:37:45;;;;;;;25.03;18.03;;;5.60;99.90;;;;;;5055359;28;20456;-89
2021/12/26 06:40:13;;;;;;;30.47;20.00;;;5.60;99.90;;;;;;5040333;28;20520;-90
2021/12/26 06:42:42;;;;;;;26.20;19.33;;;5.60;99.90;;;;;;5046576;28;20440;-90
2021/12/26 06:45:09;;;;;;;29.40;20.13;;;5.60;99.90;;;;;;5039890;28;20487;-90
2021/12/26 06:47:37;;;;;;;27.17;19.80;;;5.60;99.90;;;;;;5037627;28;20837;-90
2021/12/26 06:50:04;;;;;;;27.87;19.97;;;5.70;99.90;;;;;;5038816;28;20468;-90
2021/12/26 06:52:31;;;;;;;26.10;19.90;;;5.70;99.90;;;;;;5040465;28;20445;-89
2021/12/26 06:54:59;;;;;;;26.20;19.33;;;5.70;99.90;;;;;;5040737;28;20457;-89
2021/12/26 06:57:26;;;;;;;28.17;19.37;;;5.70;99.90;;;;;;5045529;28;20444;-89
2021/12/26 06:59:53;;;;;;;28.93;20.80;;;5.80;99.90;;;;;;5049310;28;20433;-88
2021/12/26 07:02:19;;;;;;;30.13;21.80;;;5.80;99.90;;;;;;5048740;28;20532;-88
2021/12/26 07:04:47;;;;;;;30.33;19.27;;;5.80;99.90;;;;;;5047799;28;20476;-88
2021/12/26 07:07:14;;;;;;;26.87;19.80;;;5.80;99.90;;;;;;5049152;28;20453;-88
2021/12/26 07:09:42;;;;;;;30.23;20.50;;;5.80;99.90;;;;;;5036631;28;20441;-89
2021/12/26 07:12:13;;;;;;;28.63;20.70;;;5.80;99.90;;;;;;5058208;28;20453;-88
2021/12/26 07:14:40;;;;;;;29.87;21.33;;;5.90;99.90;;;;;;5051231;28;20481;-90
2021/12/26 07:17:07;;;;;;;30.07;20.10;;;5.80;99.90;;;;;;5059911;28;20445;-88
2021/12/26 07:19:34;;;;;;;31.30;20.27;;;5.80;99.90;;;;;;5045822;28;20449;-89
2021/12/26 07:22:01;;;;;;;32.57;21.17;;;5.90;99.90;;;;;;5038172;28;20449;-89
2021/12/26 07:24:28;;;;;;;31.10;21.27;;;5.90;99.90;;;;;;5035643;28;20504;-88
2021/12/26 07:26:54;;;;;;;31.77;21.57;;;5.90;99.90;;;;;;5035775;28;20445;-88
2021/12/26 07:29:22;;;;;;;30.93;21.60;;;5.90;99.90;;;;;;5035293;28;20453;-89
2021/12/26 07:31:49;;;;;;;35.07;20.93;;;5.90;99.90;;;;;;5036905;28;20449;-89
2021/12/26 07:34:16;;;;;;;28.80;21.67;;;5.90;99.90;;;;;;5037680;28;20457;-88
2021/12/26 07:36:43;;;;;;;30.70;20.67;;;6.00;99.90;;;;;;5035977;28;20940;-89
2021/12/26 07:39:09;;;;;;;33.30;21.77;;;6.00;99.90;;;;;;5035919;28;20507;-90
2021/12/26 07:41:36;;;;;;;32.10;21.17;;;6.00;99.90;;;;;;5035241;28;20445;-89
2021/12/26 07:44:03;;;;;;;32.47;20.47;;;6.00;99.90;;;;;;5033681;28;20473;-88
2021/12/26 07:46:31;;;;;;;32.17;24.00;;;6.10;99.90;;;;;;5037559;28;20595;-89
2021/12/26 07:48:58;;;;;;;28.93;20.27;;;6.10;99.90;;;;;;5034691;28;20441;-89
2021/12/26 07:51:25;;;;;;;34.23;21.17;;;6.10;99.90;;;;;;5035284;28;20453;-88
2021/12/26 07:53:51;;;;;;;32.70;21.80;;;6.10;99.90;;;;;;5035784;28;20461;-89
2021/12/26 07:56:19;;;;;;;35.00;22.50;;;6.10;99.90;;;;;;5036584;28;20491;-89
2021/12/26 07:58:46;;;;;;;30.27;20.70;;;6.20;99.90;;;;;;5036080;28;20444;-87
2021/12/26 08:01:13;;;;;;;31.57;20.77;;;6.20;99.90;;;;;;5058975;28;20457;-87
2021/12/26 08:03:41;;;;;;;28.63;20.50;;;6.20;99.90;;;;;;5048500;28;20450;-88
2021/12/26 08:06:08;;;;;;;30.90;20.87;;;6.30;99.90;;;;;;5035450;28;20457;-89
2021/12/26 08:08:35;;;;;;;32.60;21.97;;;6.30;99.90;;;;;;5048569;22;20441;-91
2021/12/26 08:11:02;;;;;;;28.80;20.30;;;6.40;99.90;;;;;;5040215;28;20818;-91
2021/12/26 08:13:31;;;;;;;28.17;19.87;;;6.40;99.90;;;;;;5046061;28;20449;-91
2021/12/26 08:15:58;;;;;;;28.73;20.00;;;6.40;99.90;;;;;;5038503;28;20434;-91
2021/12/26 08:18:25;;;;;;;32.67;21.60;;;6.40;99.90;;;;;;5053652;28;20839;-92
2021/12/26 08:20:53;;;;;;;30.17;20.37;;;6.50;99.90;;;;;;5068746;28;20429;-90
2021/12/26 08:23:20;;;;;;;31.43;21.13;;;6.50;99.90;;;;;;5044195;28;20437;-92
2021/12/26 08:25:47;;;;;;;30.47;20.17;;;6.50;99.90;;;;;;5046746;28;20480;-92
2021/12/26 08:28:15;;;;;;;28.30;20.00;;;6.50;99.90;;;;;;5048041;28;20457;-92
2021/12/26 08:30:42;;;;;;;27.30;20.17;;;6.60;99.90;;;;;;5045526;28;20495;-92
2021/12/26 08:33:09;;;;;;;32.13;20.73;;;6.70;99.90;;;;;;5037729;28;20454;-92
2021/12/26 08:35:38;;;;;;;31.10;22.30;;;6.70;99.90;;;;;;5037957;28;20457;-91
2021/12/26 08:38:07;;;;;;;29.60;21.40;;;6.80;99.90;;;;;;5039525;28;20464;-91
2021/12/26 08:40:34;;;;;;;30.17;21.80;;;6.80;99.90;;;;;;5041019;28;21031;-92
2021/12/26 08:43:01;;;;;;;29.10;21.90;;;6.80;99.90;;;;;;5037942;28;20453;-92
2021/12/26 08:45:28;;;;;;;29.27;21.27;;;6.90;99.90;;;;;;5039845;28;20469;-91
2021/12/26 08:47:56;;;;;;;28.70;20.90;;;7.00;99.90;;;;;;5036918;28;20461;-92
2021/12/26 08:50:25;;;;;;;32.20;22.47;;;7.10;99.90;;;;;;5036648;28;20481;-92
2021/12/26 08:52:52;;;;;;;31.80;24.40;;;7.10;99.90;;;;;;5036569;28;20514;-92
2021/12/26 08:55:23;;;;;;;25.93;19.80;;;7.10;99.90;;;;;;5056382;28;20449;-92
2021/12/26 08:57:50;;;;;;;27.10;19.37;;;7.20;99.90;;;;;;5040330;28;20453;-92
2021/12/26 09:00:18;;;;;;;30.13;20.03;;;7.20;99.90;;;;;;5041136;28;20471;-92
2021/12/26 09:02:45;;;;;;;26.43;19.70;;;7.10;99.90;;;;;;5049778;28;20434;-92
2021/12/26 09:05:13;;;;;;;24.50;18.37;;;7.10;99.90;;;;;;5036515;28;20480;-92
2021/12/26 09:07:41;;;;;;;30.70;21.23;;;7.10;99.90;;;;;;5038445;28;20434;-92
2021/12/26 09:10:10;;;;;;;24.17;20.00;;;7.20;99.90;;;;;;5053030;28;20912;-92
2021/12/26 09:12:39;;;;;;;26.67;18.97;;;7.20;99.90;;;;;;5051271;28;20429;-92
2021/12/26 09:15:09;;;;;;;24.77;18.80;;;7.30;99.90;;;;;;5045226;28;21074;-92
2021/12/26 09:17:35;;;;;;;24.43;20.10;;;7.40;99.90;;;;;;5041845;28;20449;-91
2021/12/26 09:20:03;;;;;;;24.93;19.17;;;7.60;99.90;;;;;;5054072;28;20453;-92
2021/12/26 09:22:30;;;;;;;26.93;19.93;;;7.60;99.90;;;;;;5040978;28;20496;-92
2021/12/26 09:24:57;;;;;;;24.83;18.83;;;7.60;99.90;;;;;;5037787;28;20472;-91
2021/12/26 09:27:24;;;;;;;25.33;19.50;;;7.60;99.90;;;;;;5046953;28;20425;-91
2021/12/26 09:29:52;;;;;;;24.33;18.97;;;7.60;99.90;;;;;;5054458;28;20867;-92
2021/12/26 09:32:19;;;;;;;28.57;20.60;;;7.60;99.90;;;;;;5056841;28;20459;-92
2021/12/26 09:34:46;;;;;;;29.80;22.40;;;7.70;99.90;;;;;;5042041;28;20528;-92
2021/12/26 09:37:14;;;;;;;30.47;22.20;;;7.60;99.90;;;;;;5037151;28;20460;-92
2021/12/26 09:39:42;;;;;;;30.53;22.30;;;7.60;99.90;;;;;;5037169;28;20477;-92
2021/12/26 09:42:09;;;;;;;26.53;20.20;;;7.70;99.90;;;;;;5037931;28;20469;-92
2021/12/26 09:44:36;;;;;;;24.77;19.30;;;7.70;99.90;;;;;;5037091;28;20473;-93
2021/12/26 09:47:24;;;;;;;25.57;19.30;;;7.70;99.90;;;;;;5045350;28;20450;-93
2021/12/26 09:49:52;;;;;;;27.17;21.37;;;7.90;99.90;;;;;;5037065;28;20488;-92
2021/12/26 09:52:19;;;;;;;27.67;21.27;;;7.70;99.90;;;;;;5037233;28;20449;-92
2021/12/26 09:54:46;;;;;;;29.27;22.00;;;8.00;99.90;;;;;;5054681;28;20520;-92
2021/12/26 09:57:14;;;;;;;21.57;16.97;;;8.00;99.90;;;;;;5050151;28;20524;-92
2021/12/26 09:59:47;;;;;;;24.60;18.10;;;8.10;99.90;;;;;;5052538;28;20564;-91
2021/12/26 10:02:18;;;;;;;21.77;16.50;;;8.20;99.90;;;;;;5051424;28;20445;-92
2021/12/26 10:04:46;;;;;;;21.37;17.77;;;8.30;99.90;;;;;;5041883;28;20886;-92
2021/12/26 10:07:15;;;;;;;17.77;15.07;;;8.40;99.90;;;;;;5043325;28;20449;-92
2021/12/26 10:09:45;;;;;;;21.63;17.17;;;8.60;99.90;;;;;;5042677;28;20479;-92
2021/12/26 10:12:14;;;;;;;20.90;17.67;;;8.50;99.90;;;;;;5049569;28;20522;-93
2021/12/26 10:14:43;;;;;;;21.00;16.20;;;8.60;99.90;;;;;;5050631;28;20465;-92
2021/12/26 10:17:12;;;;;;;20.57;15.50;;;8.60;99.90;;;;;;5057038;28;20469;-92
2021/12/26 10:19:42;;;;;;;17.20;13.20;;;8.60;99.90;;;;;;5047156;28;20461;-92
2021/12/26 10:22:12;;;;;;;16.03;14.33;;;8.60;99.90;;;;;;5056584;28;20453;-92
2021/12/26 10:24:41;;;;;;;19.03;14.80;;;8.70;99.90;;;;;;5036746;28;20544;-92
2021/12/26 10:27:10;;;;;;;16.60;13.97;;;8.70;99.90;;;;;;5035878;28;20449;-93
2021/12/26 10:29:40;;;;;;;18.07;14.97;;;8.60;99.90;;;;;;5041728;28;20501;-93
2021/12/26 10:32:10;;;;;;;19.23;15.43;;;8.80;99.90;;;;;;5046336;28;20449;-93
2021/12/26 10:34:42;;;;;;;16.37;14.67;;;8.80;99.90;;;;;;5035828;28;20449;-93
2021/12/26 10:37:28;;;;;;;13.40;11.87;;;8.80;99.90;;;;;;5038101;28;20467;-92
2021/12/26 10:44:14;;;;;;;13.43;12.03;;;8.80;99.90;;;;;;5040654;28;20508;-92
2021/12/26 10:47:16;;;;;;;13.77;12.27;;;8.80;99.90;;;;;;5044370;28;20464;-92
2021/12/26 10:53:50;;;;;;;14.53;12.77;;;8.70;99.90;;;;;;5030843;28;20448;-92
2021/12/26 10:59:44;;;;;;;13.13;10.20;;;8.60;99.90;;;;;;5013331;28;20464;-89
2021/12/26 11:02:20;;;;;;;12.83;10.27;;;8.60;99.90;;;;;;5047842;28;20463;-93
2021/12/26 11:04:58;;;;;;;12.83;11.53;;;8.60;99.90;;;;;;5033782;28;20491;-92
2021/12/26 11:07:25;;;;;;;11.03;8.80;;;8.50;99.90;;;;;;5035801;28;20452;-92
2021/12/26 11:10:04;;;;;;;12.07;10.77;;;8.50;99.90;;;;;;5048140;28;20552;-86
2021/12/26 11:12:40;;;;;;;12.17;10.60;;;8.50;99.90;;;;;;5033525;28;20422;-85
2021/12/26 11:15:08;;;;;;;11.30;9.90;;;8.70;99.90;;;;;;5035426;28;20437;-82
2021/12/26 11:17:37;;;;;;;10.70;9.60;;;8.80;99.90;;;;;;5034180;28;20441;-80
2021/12/26 11:20:07;;;;;;;11.47;10.27;;;8.90;99.90;;;;;;5049794;28;20528;-82
2021/12/26 11:22:33;;;;;;;9.43;8.47;;;8.90;99.90;;;;;;5044857;28;20839;-82
2021/12/26 11:25:00;;;;;;;10.20;9.20;;;8.90;99.90;;;;;;5061310;28;20880;-80
2021/12/26 11:27:27;;;;;;;9.77;8.77;;;9.00;99.90;;;;;;5064252;28;20449;-81
2021/12/26 11:30:00;;;;;;;8.73;7.83;;;9.00;99.90;;;;;;5049089;28;20469;-88
2021/12/26 11:32:53;;;;;;;9.70;8.70;;;9.00;99.90;;;;;;5047175;28;20520;-88
2021/12/26 11:35:21;;;;;;;9.70;8.80;;;9.00;99.90;;;;;;5046710;28;20805;-88
2021/12/26 11:41:07;;;;;;;9.70;8.57;;;9.50;99.90;;;;;;5064660;22;20488;-88
2021/12/26 11:44:05;;;;;;;8.97;8.07;;;9.80;99.90;;;;;;5040038;28;20441;-91
2021/12/26 11:56:34;;;;;;;7.03;6.43;;;14.10;99.90;;;;;;5720526;22;20503;-89
2021/12/26 11:59:34;;;;;;;7.07;6.47;;;16.80;99.90;;;;;;5042872;28;20684;-87
2021/12/26 12:05:12;;;;;;;9.23;8.43;;;16.30;95.60;;;;;;5046123;28;20508;-89
2021/12/26 12:21:50;;;;;;;7.40;6.70;;;12.70;99.90;;;;;;4934529;29;20436;-88
2021/12/26 12:33:47;;;;;;;7.47;6.70;;;11.40;99.90;;;;;;5045651;28;20425;-90
2021/12/26 12:36:32;;;;;;;8.30;7.50;;;11.40;99.90;;;;;;4997810;28;20525;-89
2021/12/26 12:39:51;;;;;;;8.00;7.30;;;11.40;99.90;;;;;;5044603;28;20500;-88
2021/12/26 12:51:58;;;;;;;7.10;6.40;;;11.30;99.90;;;;;;5048195;28;20521;-89
2021/12/26 12:54:32;;;;;;;7.73;7.03;;;11.10;99.90;;;;;;5036698;28;20449;-89
2021/12/26 12:57:40;;;;;;;7.97;7.20;;;11.10;99.90;;;;;;5057476;28;20449;-89
2021/12/26 13:03:59;;;;;;;8.40;7.60;;;10.60;99.90;;;;;;4991797;28;20436;-88
2021/12/26 13:14:06;;;;;;;8.13;7.33;;;10.30;99.90;;;;;;5015311;28;20411;-89
2021/12/26 13:16:34;;;;;;;7.10;6.50;;;10.30;99.90;;;;;;5058884;28;20479;-90
2021/12/26 13:19:06;;;;;;;7.93;7.23;;;10.20;99.90;;;;;;5058051;28;20479;-89
2021/12/26 13:21:33;;;;;;;8.27;7.50;;;10.20;99.90;;;;;;5058375;28;20447;-89
2021/12/26 13:24:45;;;;;;;8.50;7.70;;;10.10;99.90;;;;;;5056916;28;20436;-90
2021/12/26 13:30:44;;;;;;;7.53;6.83;;;10.00;99.90;;;;;;5053885;22;20581;-90
2021/12/26 13:33:38;;;;;;;7.57;6.87;;;10.00;99.90;;;;;;5045534;28;20441;-90
2021/12/26 13:36:34;;;;;;;8.53;7.73;;;10.00;99.90;;;;;;5022746;28;20480;-90
2021/12/26 13:42:19;;;;;;;10.57;9.57;;;9.90;99.90;;;;;;5033494;28;20444;-89
2021/12/26 13:44:46;;;;;;;8.03;7.23;;;9.80;99.90;;;;;;5036229;28;20921;-89
2021/12/26 13:55:08;;;;;;;9.20;8.30;;;9.70;99.90;;;;;;4935840;29;20463;-88
2021/12/26 14:19:07;;;;;;;8.00;7.20;;;9.80;99.90;;;;;;5001549;28;20460;-88
2021/12/26 14:21:41;;;;;;;8.37;7.47;;;9.80;99.90;;;;;;5020197;28;20430;-88
2021/12/26 14:24:18;;;;;;;16.07;14.77;;;9.90;99.90;;;;;;5030108;28;20443;-89
2021/12/26 14:26:45;;;;;;;8.40;7.60;;;9.90;99.90;;;;;;5054588;28;20566;-90
2021/12/26 14:29:54;;;;;;;9.17;8.20;;;10.00;99.90;;;;;;5057107;28;20463;-89
2021/12/26 14:32:42;;;;;;;8.13;7.23;;;10.20;99.90;;;;;;5041136;28;20475;-88
2021/12/26 14:38:20;;;;;;;9.77;8.77;;;10.00;99.90;;;;;;4340334;26;20463;-88
2021/12/26 14:41:18;;;;;;;8.53;7.73;;;9.90;99.90;;;;;;4997479;28;20459;-89
2021/12/26 14:44:39;;;;;;;8.33;7.53;;;9.80;99.90;;;;;;4992072;28;20453;-89